DHMTN EDGO-LOWI
Flight info
| Callsign | DHMTN |
|---|---|
| Flight time | N/A |
| Altitude | 5500 |
| Route | 485845N0093446E DCT EDPM DCT EDNH DCT 472310N0111531E DCT 472009N0111039E DCT 471711N0111011E DCT 471547N0111741E |
| Aircraft | MI2/L-FHV/S |
Departure
| Time | 2026-05-06 18:54 |
|---|---|
| Airport | Oedheim Airfield (EDGO) |
Arrival
| Time | N/A |
|---|---|
| Airport | Innsbruck Airport (LOWI) |
| Time | Latitude | Longitude | Altitude | Speed | Heading |
|---|---|---|---|---|---|
| 2026-05-06 18:25 | 49.23990 | 9.23528 | 520 ft | 0 kts | 144° |
| 2026-05-06 18:49 | 49.23989 | 9.23529 | 526 ft | 0 kts | 142° |
| 2026-05-06 18:50 | 49.23988 | 9.23531 | 527 ft | 1 kts | 134° |
| 2026-05-06 18:50 | 49.23989 | 9.23529 | 526 ft | 0 kts | 148° |
| 2026-05-06 18:51 | 49.23992 | 9.23535 | 526 ft | 4 kts | 340° |
| 2026-05-06 18:51 | 49.24000 | 9.23525 | 526 ft | 1 kts | 326° |
| 2026-05-06 18:51 | 49.24023 | 9.23504 | 522 ft | 7 kts | 336° |
| 2026-05-06 18:52 | 49.24052 | 9.23488 | 522 ft | 4 kts | 339° |
| 2026-05-06 18:52 | 49.24086 | 9.23471 | 523 ft | 6 kts | 337° |
| 2026-05-06 18:52 | 49.24128 | 9.23451 | 522 ft | 4 kts | 338° |
| 2026-05-06 18:52 | 49.24145 | 9.23441 | 522 ft | 2 kts | 272° |
| 2026-05-06 18:53 | 49.24144 | 9.23438 | 522 ft | 0 kts | 266° |
| 2026-05-06 18:53 | 49.24144 | 9.23436 | 522 ft | 1 kts | 258° |
| 2026-05-06 18:53 | 49.24139 | 9.23427 | 557 ft | 5 kts | 252° |
| 2026-05-06 18:54 | 49.23992 | 9.23349 | 757 ft | 46 kts | 189° |
| 2026-05-06 18:54 | 49.23604 | 9.23467 | 945 ft | 68 kts | 148° |
| 2026-05-06 18:54 | 49.23186 | 9.23963 | 1145 ft | 82 kts | 138° |
| 2026-05-06 18:54 | 49.22827 | 9.24745 | 1282 ft | 98 kts | 127° |
| 2026-05-06 18:55 | 49.22453 | 9.25666 | 1374 ft | 104 kts | 131° |
| 2026-05-06 18:55 | 49.22047 | 9.26588 | 1583 ft | 104 kts | 128° |
| 2026-05-06 18:55 | 49.21625 | 9.27558 | 1697 ft | 109 kts | 136° |
| 2026-05-06 18:55 | 49.21176 | 9.28469 | 1884 ft | 105 kts | 135° |
| 2026-05-06 18:56 | 49.20709 | 9.29368 | 2000 ft | 108 kts | 141° |
| 2026-05-06 18:56 | 49.20196 | 9.30233 | 2112 ft | 110 kts | 146° |
| 2026-05-06 18:56 | 49.19643 | 9.31004 | 2245 ft | 103 kts | 149° |
| 2026-05-06 18:56 | 49.19095 | 9.31760 | 2412 ft | 110 kts | 147° |
| 2026-05-06 18:57 | 49.18525 | 9.32559 | 2536 ft | 115 kts | 151° |
| 2026-05-06 18:57 | 49.17932 | 9.33339 | 2626 ft | 111 kts | 152° |
| 2026-05-06 18:57 | 49.17374 | 9.34112 | 2843 ft | 100 kts | 144° |
| 2026-05-06 18:57 | 49.16870 | 9.34865 | 3082 ft | 102 kts | 140° |
| 2026-05-06 18:58 | 49.16361 | 9.35603 | 3313 ft | 106 kts | 149° |
| 2026-05-06 18:58 | 49.15820 | 9.36302 | 3573 ft | 102 kts | 143° |
| 2026-05-06 18:58 | 49.15287 | 9.37079 | 3745 ft | 103 kts | 140° |
| 2026-05-06 18:58 | 49.14819 | 9.37949 | 3992 ft | 103 kts | 131° |
| 2026-05-06 18:59 | 49.14466 | 9.38935 | 4169 ft | 112 kts | 112° |
| 2026-05-06 18:59 | 49.14294 | 9.40040 | 4368 ft | 111 kts | 90° |
| 2026-05-06 18:59 | 49.14257 | 9.41238 | 4514 ft | 112 kts | 107° |
| 2026-05-06 18:59 | 49.14005 | 9.42299 | 4719 ft | 114 kts | 109° |
| 2026-05-06 19:00 | 49.13692 | 9.43268 | 5037 ft | 97 kts | 116° |
| 2026-05-06 19:00 | 49.13536 | 9.44325 | 5113 ft | 116 kts | 103° |
| 2026-05-06 19:00 | 49.13505 | 9.45447 | 5278 ft | 110 kts | 85° |
| 2026-05-06 19:00 | 49.13630 | 9.46223 | 5330 ft | 111 kts | 69° |
| 2026-05-06 19:01 | 49.14142 | 9.47596 | 5448 ft | 117 kts | 49° |
| 2026-05-06 19:01 | 49.14602 | 9.48654 | 5487 ft | 120 kts | 60° |
| 2026-05-06 19:01 | 49.15062 | 9.49654 | 5611 ft | 116 kts | 44° |
| 2026-05-06 19:01 | 49.15576 | 9.50622 | 5657 ft | 118 kts | 55° |
| 2026-05-06 19:02 | 49.15834 | 9.51802 | 5708 ft | 115 kts | 89° |
| 2026-05-06 19:02 | 49.15619 | 9.52990 | 5698 ft | 116 kts | 126° |
| 2026-05-06 19:02 | 49.15125 | 9.53890 | 5734 ft | 110 kts | 150° |
| 2026-05-06 19:02 | 49.14502 | 9.54556 | 5654 ft | 108 kts | 155° |
| 2026-05-06 19:03 | 49.13938 | 9.55365 | 5668 ft | 99 kts | 131° |
| 2026-05-06 19:03 | 49.13643 | 9.56260 | 5893 ft | 90 kts | 165° |
| 2026-05-06 19:03 | 49.13248 | 9.56916 | 6047 ft | 96 kts | 125° |
| 2026-05-06 19:03 | 49.13165 | 9.57616 | 6526 ft | 61 kts | 92° |
| 2026-05-06 19:04 | 49.13244 | 9.58532 | 6423 ft | 89 kts | 110° |
| 2026-05-06 19:04 | 49.13336 | 9.59244 | 6706 ft | 82 kts | 82° |
| 2026-05-06 19:04 | 49.13354 | 9.60227 | 6725 ft | 84 kts | 114° |
| 2026-05-06 19:04 | 49.13281 | 9.60975 | 7024 ft | 69 kts | 114° |
| 2026-05-06 19:05 | 49.13108 | 9.61636 | 7247 ft | 60 kts | 150° |
| 2026-05-06 19:05 | 49.12945 | 9.62197 | 7430 ft | 72 kts | 134° |
| 2026-05-06 19:05 | 49.12630 | 9.62917 | 7446 ft | 78 kts | 127° |
| 2026-05-06 19:05 | 49.12240 | 9.63457 | 7499 ft | 76 kts | 157° |
| 2026-05-06 19:06 | 49.11765 | 9.63839 | 7552 ft | 77 kts | 156° |
| 2026-05-06 19:06 | 49.11348 | 9.64223 | 7731 ft | 64 kts | 143° |
| 2026-05-06 19:06 | 49.11064 | 9.64696 | 7889 ft | 55 kts | 141° |
| 2026-05-06 19:06 | 49.10698 | 9.64959 | 8004 ft | 51 kts | 160° |
| 2026-05-06 19:07 | 49.10467 | 9.65332 | 8175 ft | 54 kts | 128° |
| 2026-05-06 19:07 | 49.10311 | 9.65574 | 8285 ft | 45 kts | 147° |
| 2026-05-06 19:07 | 49.10037 | 9.65884 | 8436 ft | 53 kts | 150° |
| 2026-05-06 19:07 | 49.09818 | 9.66317 | 8617 ft | 54 kts | 127° |
| 2026-05-06 19:08 | 49.09718 | 9.66753 | 8812 ft | 49 kts | 80° |
| 2026-05-06 19:08 | 49.09614 | 9.67292 | 8929 ft | 56 kts | 128° |
| 2026-05-06 19:08 | 49.09488 | 9.68277 | 8989 ft | 82 kts | 102° |
| 2026-05-06 19:08 | 49.09357 | 9.69137 | 9057 ft | 85 kts | 97° |